Buoy 51940

sailwx.info

Track history (hours):
 
Tides and Currents Weather Stations Pressure Air Temp Water Temp Dewpoint Dewpoint Depression Visibility Wind Speed Wind Dir Waves Ship Positions

Drifting buoy 51940

Last reported at 2014-Nov-22 08:01 UTC. Time now 2014-Nov-22 08:54 UTC.
Position N 33°02' W 177°18'.

Date/timePositionNaut miles runAvg speedWind from/ knotsBaromVisibWave heightAir tempDewpointWater temp
2014-Nov-22 08:01N 33°02' W 177°18'0 0.0
2014-Nov-22 07:08N 33°02' W 177°18'5 1.9 19.8
2014-Nov-22 04:25N 33°02' W 177°24'1 4.3 19.7
2014-Nov-22 04:18N 33°02' W 177°23'2 1.2 19.7
2014-Nov-22 02:42N 33°02' W 177°26'360.8 19.5
2014-Nov-22 02:39N 33°03' W 177°29'3 9.6 19.5
2014-Nov-22 02:20N 33°02' W 177°26'8 5.0 19.5
2014-Nov-22 00:45N 33°04' W 177°35'1 0.2 19.5
2014-Nov-21 21:32N 33°04' W 177°34'10 2.9 19.4
2014-Nov-21 18:09N 33°08' W 177°45'0 0.2 19.4
2014-Nov-21 17:04N 33°08' W 177°45'0 0.0 19.3
2014-Nov-21 16:29N 33°08' W 177°45'2 1.9 19.4
2014-Nov-21 15:15N 33°10' W 177°47'0 0.0 19.3
2014-Nov-21 15:06N 33°10' W 177°47'0 0.0 19.3
2014-Nov-21 13:25N 33°10' W 177°47'7 1.6 19.3
2014-Nov-21 09:10N 33°14' W 177°54'0 0.0 19.3
2014-Nov-21 09:06N 33°14' W 177°54'1 1.5 19.3
2014-Nov-21 08:19N 33°14' W 177°55'5 5.6 19.3
2014-Nov-21 07:29N 33°19' W 177°58'0 0.0 19.3
2014-Nov-21 04:49N 33°19' W 177°58'5 2.7 19.2
2014-Nov-21 02:49N 33°24' W 177°59'0 0.0
2014-Nov-21 02:39N 33°24' W 177°59'7 4.2
2014-Nov-21 00:57N 33°31' W 177°59'0 0.0 19.2
2014-Nov-20 21:52N 33°31' W 177°59'0 0.0 19.4
2014-Nov-20 21:49N 33°31' W 177°59'8 9.9
2014-Nov-20 21:01N 33°39' W 178°01'0 0.0 19.5
2014-Nov-20 18:39N 33°39' W 178°01'6 5.3 19.5
2014-Nov-20 17:28N 33°45' W 178°02'0 0.5 19.4
2014-Nov-20 17:04N 33°45' W 178°02'358.4 19.4
2014-Nov-20 17:01N 33°42' W 178°02'3 2.4 19.4
2014-Nov-20 15:49N 33°45' W 178°02'0 0.2 19.4
2014-Nov-20 15:30N 33°45' W 178°02'314.0 19.4
2014-Nov-20 15:16N 33°48' W 178°03'0 0.2 19.4
2014-Nov-20 13:37N 33°48' W 178°03'6 1.4 19.4
2014-Nov-20 09:28N 33°53' W 178°01'1 1.5 19.4
2014-Nov-20 08:40N 33°55' W 178°01'2 2.2 19.3
2014-Nov-20 07:50N 33°56' W 178°01'4 2.2 19.3
2014-Nov-20 05:50N 34°01' W 177°59'3 2.4 19.3
2014-Nov-20 04:46N 34°03' W 177°58'4 2.9 19.3
2014-Nov-20 03:32N 34°07' W 177°58'0 0.0 19.3
2014-Nov-20 03:05N 34°07' W 177°58'112.0 19.3
2014-Nov-20 03:02N 34°07' W 177°58'421.1 19.3
2014-Nov-20 02:50N 34°11' W 177°57'0 0.0 19.3
2014-Nov-20 02:47N 34°11' W 177°57'1 0.4 19.3
2014-Nov-20 01:09N 34°11' W 177°57'6180.6
2014-Nov-20 01:07N 34°17' W 177°58'1 0.6 19.4
2014-Nov-19 23:02N 34°18' W 177°58'2 1.9
2014-Nov-19 22:13N 34°17' W 177°57'2 2.0 19.6
2014-Nov-19 21:25N 34°18' W 177°58'3 3.4 19.8
2014-Nov-19 20:29N 34°21' W 177°59'0 0.0 19.9
2014-Nov-19 19:04N 34°21' W 177°59'1 1.1
2014-Nov-19 17:53N 34°22' W 177°59'1 3.7 19.9
2014-Nov-19 17:32N 34°21' W 177°59'1 4.1 19.9
2014-Nov-19 17:13N 34°22' W 177°59'0 0.0 19.9
2014-Nov-19 16:19N 34°22' W 177°59'1 0.9 19.9
2014-Nov-19 15:40N 34°23' W 177°59'2 0.8 19.9
2014-Nov-19 13:46N 34°24' W 177°58'437.3 19.8
2014-Nov-19 13:40N 34°28' W 177°56'0 0.0 19.8
2014-Nov-19 09:49N 34°28' W 177°56'1 1.7 19.5
2014-Nov-19 09:03N 34°29' W 177°56'0 0.0 19.5
2014-Nov-19 08:57N 34°29' W 177°56'0 0.0
2014-Nov-19 08:12N 34°29' W 177°56'218.0 20.0
2014-Nov-19 08:04N 34°31' W 177°56'2 0.5 20.0
2014-Nov-19 03:58N 34°33' W 177°56'1 1.2 20.0
2014-Nov-19 03:18N 34°34' W 177°56'112.0 20.0
2014-Nov-19 03:12N 34°35' W 177°56'0 0.0 20.0
2014-Nov-19 01:23N 34°35' W 177°56'0 0.0 20.0
2014-Nov-19 01:18N 34°35' W 177°56'5 1.5 20.0
2014-Nov-18 21:43N 34°39' W 177°52'1 0.7 20.0
2014-Nov-18 20:49N 34°40' W 177°52'0 0.1
2014-Nov-18 18:01N 34°39' W 177°51'2 3.5 20.1
2014-Nov-18 17:26N 34°41' W 177°50'1 0.9 20.1
2014-Nov-18 16:45N 34°41' W 177°51'1 2.2 20.1
2014-Nov-18 16:25N 34°41' W 177°50'0 0.5 20.1
2014-Nov-18 15:51N 34°42' W 177°50'0 1.4 20.1
2014-Nov-18 15:38N 34°42' W 177°50'2 1.1 20.2
2014-Nov-18 13:58N 34°44' W 177°50'5 1.2 20.0
2014-Nov-18 10:13N 34°48' W 177°48'1 1.6 20.1
2014-Nov-18 09:23N 34°49' W 177°47'111.6 20.0
2014-Nov-18 09:19N 34°50' W 177°47'0 0.0 20.0
2014-Nov-18 08:32N 34°50' W 177°47'0 0.0 19.9
2014-Nov-18 08:28N 34°50' W 177°47'3 1.0 19.9
2014-Nov-18 05:09N 34°53' W 177°46'1 1.7 20.0
2014-Nov-18 04:26N 34°54' W 177°46'1 1.2 20.0
2014-Nov-18 03:25N 34°55' W 177°46'3 1.5 19.8
2014-Nov-18 01:33N 34°58' W 177°47'0 0.0 20.0
2014-Nov-18 01:27N 34°58' W 177°47'1 0.3 20.0
2014-Nov-17 21:13N 34°58' W 177°49'1 0.4 20.0
2014-Nov-17 18:26N 34°59' W 177°49'0 0.7
2014-Nov-17 17:45N 34°59' W 177°49'0 0.7 20.1
2014-Nov-17 17:01N 34°59' W 177°49'0 0.0 20.0
2014-Nov-17 16:55N 34°59' W 177°49'0 0.0 20.0
2014-Nov-17 16:02N 34°59' W 177°49'0 0.0 20.0
2014-Nov-17 15:59N 34°59' W 177°49'0 0.0 20.0
2014-Nov-17 15:47N 34°59' W 177°49'0 0.0 20.0
2014-Nov-17 14:09N 34°59' W 177°49'330.4 19.8
2014-Nov-17 14:03N 35°02' W 177°48'0 0.0 19.6
2014-Nov-17 10:32N 35°02' W 177°48'0 0.0 19.8
2014-Nov-17 09:40N 35°02' W 177°48'0 0.0 19.8
2014-Nov-17 08:49N 35°02' W 177°48'256.0 19.8
2014-Nov-17 08:47N 35°04' W 177°49'0 0.0 19.9
2014-Nov-17 08:05N 35°04' W 177°49'0 0.0 19.9
2014-Nov-17 07:09N 35°04' W 177°49'0 0.0 19.9
2014-Nov-17 05:43N 35°04' W 177°49'0 0.5 19.9
2014-Nov-17 04:46N 35°04' W 177°49'0 0.0 19.9
2014-Nov-17 03:39N 35°04' W 177°49'112.0 20.0
2014-Nov-17 03:36N 35°05' W 177°49'1 1.8 20.0
2014-Nov-17 03:10N 35°04' W 177°49'1 6.0 20.0
2014-Nov-17 03:04N 35°05' W 177°49'0 0.0 20.0
2014-Nov-17 01:45N 35°05' W 177°49'1 6.0 20.0
2014-Nov-17 01:39N 35°05' W 177°49'0 0.0 20.0
2014-Nov-17 00:04N 35°05' W 177°49'114.7 20.0
2014-Nov-17 00:00N 35°05' W 177°47'0 0.0 20.0
2014-Nov-16 22:24N 35°05' W 177°47'0 0.2 19.7
2014-Nov-16 21:34N 35°05' W 177°48'1 0.5 19.6
2014-Nov-16 19:04N 35°07' W 177°47'1 0.5 19.0
2014-Nov-16 17:54N 35°07' W 177°47'0 0.0
2014-Nov-16 17:28N 35°07' W 177°47'1 0.8 19.0
2014-Nov-16 16:16N 35°07' W 177°48'549.8 18.9
2014-Nov-16 16:10N 35°11' W 177°52'0 0.0 18.9
2014-Nov-16 15:48N 35°11' W 177°52'0 0.0 18.9
2014-Nov-16 14:19N 35°11' W 177°52'0 0.0 18.9
2014-Nov-16 14:13N 35°11' W 177°52'0 0.0 18.9
2014-Nov-16 12:32N 35°11' W 177°52'0 0.0 18.9
2014-Nov-16 09:13N 35°11' W 177°52'0 5.9 18.8
2014-Nov-16 09:08N 35°11' W 177°52'1 1.1 18.8
2014-Nov-16 08:26N 35°11' W 177°52'0 0.0 18.8
2014-Nov-16 08:23N 35°11' W 177°52'1 1.3 18.8
2014-Nov-16 07:31N 35°11' W 177°53'0 0.0 18.9
2014-Nov-16 06:13N 35°11' W 177°53'0 0.7 19.0
2014-Nov-16 05:28N 35°11' W 177°54'1 4.5 19.0
2014-Nov-16 05:15N 35°11' W 177°53'0 0.3 19.0
2014-Nov-16 03:46N 35°11' W 177°53'1 5.9 19.0
2014-Nov-16 03:31N 35°11' W 177°55'0 0.0 19.0
2014-Nov-16 01:55N 35°11' W 177°55'0 0.0 19.1
2014-Nov-16 01:49N 35°11' W 177°55'2 1.5 19.0
2014-Nov-16 00:14N 35°10' W 177°53'1 0.4 19.0
2014-Nov-15 21:02N 35°10' W 177°52'1 0.4 19.0
2014-Nov-15 18:07N 35°11' W 177°51'1 5.2 18.9
2014-Nov-15 17:58N 35°11' W 177°52'1 0.5 19.0
2014-Nov-15 16:28N 35°11' W 177°51'325.9 19.0
2014-Nov-15 16:22N 35°14' W 177°50'0 0.0 19.0
2014-Nov-15 16:18N 35°14' W 177°50'0 0.0 19.1
2014-Nov-15 14:32N 35°14' W 177°50'2 1.4 19.1
2014-Nov-15 12:49N 35°16' W 177°50'224.5 19.1
2014-Nov-15 12:43N 35°19' W 177°49'0 0.0 19.1
2014-Nov-15 09:34N 35°19' W 177°49'1 0.7 18.9
2014-Nov-15 08:45N 35°19' W 177°49'1 1.4 18.9
2014-Nov-15 07:55N 35°20' W 177°49'1 0.6 18.9
2014-Nov-15 06:45N 35°21' W 177°49'2 1.1 18.9
2014-Nov-15 05:04N 35°23' W 177°50'1 1.2 18.8
2014-Nov-15 03:58N 35°24' W 177°51'2 1.1 18.7
2014-Nov-15 02:17N 35°25' W 177°53'212.6 18.8
2014-Nov-15 02:08N 35°24' W 177°51'214.2 18.8
2014-Nov-15 02:00N 35°25' W 177°53'0 0.0 18.8
2014-Nov-15 00:26N 35°25' W 177°53'112.0 18.9
2014-Nov-15 00:23N 35°26' W 177°53'2 0.7 18.9
2014-Nov-14 22:15N 35°27' W 177°54'1 1.3 19.0
2014-Nov-14 21:26N 35°28' W 177°55'2 2.1 19.1
2014-Nov-14 20:32N 35°29' W 177°56'0 0.0 19.2
2014-Nov-14 18:29N 35°29' W 177°56'2 0.9 19.7
2014-Nov-14 16:49N 35°31' W 177°57'1 4.6 19.7
2014-Nov-14 16:39N 35°31' W 177°58'4 1.7 19.7
2014-Nov-14 14:34N 35°34' W 178°00'0 0.0 19.8
2014-Nov-14 09:53N 35°34' W 178°00'0 0.0 19.8
2014-Nov-14 09:04N 35°34' W 178°00'118.0 19.9
2014-Nov-14 09:02N 35°35' W 178°00'0 0.0 19.9
2014-Nov-14 08:15N 35°35' W 178°00'0 0.0 19.8
2014-Nov-14 08:10N 35°35' W 178°00'2 0.8 19.8
2014-Nov-14 05:35N 35°37' W 178°01'2 1.3 19.9
2014-Nov-14 04:25N 35°38' W 178°02'215.5 19.9
2014-Nov-14 04:19N 35°39' W 178°04'218.9 19.9
2014-Nov-14 04:13N 35°38' W 178°02'218.9 19.9
2014-Nov-14 04:07N 35°39' W 178°04'0 0.0 19.9
2014-Nov-14 02:32N 35°39' W 178°04'240.9 19.9
2014-Nov-14 02:29N 35°41' W 178°05'2 8.8 19.9
2014-Nov-14 02:15N 35°39' W 178°04'2 1.2 19.9
2014-Nov-14 00:33N 35°41' W 178°05'4 1.3 19.7
2014-Nov-13 21:48N 35°44' W 178°06'0 0.0 19.2
2014-Nov-13 20:56N 35°44' W 178°06'2 0.7 18.9
2014-Nov-13 17:19N 35°47' W 178°07'0 0.0 18.6
2014-Nov-13 17:07N 35°47' W 178°07'1 2.4 18.6
2014-Nov-13 16:48N 35°47' W 178°07'1 7.2 18.6
2014-Nov-13 16:43N 35°48' W 178°07'0 0.0 18.6
2014-Nov-13 15:07N 35°48' W 178°07'0 1.7 18.6
2014-Nov-13 14:49N 35°48' W 178°07'128.8 18.6
2014-Nov-13 14:47N 35°49' W 178°07'0 0.0 18.6
2014-Nov-13 13:13N 35°49' W 178°07'1 5.1 18.5
2014-Nov-13 13:04N 35°50' W 178°06'0 0.0 18.5
2014-Nov-13 10:15N 35°50' W 178°06'0 0.0 18.6
2014-Nov-13 09:28N 35°50' W 178°06'0 4.9 18.6
2014-Nov-13 09:22N 35°50' W 178°05'0 0.0 18.6
2014-Nov-13 08:34N 35°50' W 178°05'122.9 18.5
2014-Nov-13 08:31N 35°49' W 178°04'0 0.1 18.5
2014-Nov-13 06:09N 35°49' W 178°04'1 1.0 18.5
2014-Nov-13 04:48N 35°49' W 178°02'1 2.4 18.5
2014-Nov-13 04:19N 35°49' W 178°01'0 0.0 18.5
2014-Nov-13 04:17N 35°49' W 178°01'0 0.0 18.5
2014-Nov-13 02:45N 35°49' W 178°01'223.7 18.6
2014-Nov-13 02:41N 35°48' W 177°59'1 5.3 18.6
2014-Nov-13 02:28N 35°49' W 178°01'1 0.7 18.6
2014-Nov-13 00:48N 35°48' W 177°59'0 0.0 18.6
2014-Nov-13 00:45N 35°48' W 177°59'2 0.6 18.6
2014-Nov-12 22:07N 35°47' W 177°58'1 1.2 18.5
2014-Nov-12 21:18N 35°47' W 177°56'0 0.0 18.6
2014-Nov-12 17:49N 35°47' W 177°56'1 0.5 18.7
2014-Nov-12 16:13N 35°47' W 177°57'0 0.0 18.7
2014-Nov-12 15:19N 35°47' W 177°57'0 0.0 18.7
2014-Nov-12 15:04N 35°47' W 177°57'1 0.8 18.7
2014-Nov-12 13:25N 35°46' W 177°58'2 0.7 18.7
2014-Nov-12 10:34N 35°44' W 177°57'0 0.0 18.7
2014-Nov-12 09:43N 35°44' W 177°57'0 0.0 18.7
2014-Nov-12 08:58N 35°44' W 177°57'1 4.0 18.7
2014-Nov-12 08:49N 35°43' W 177°57'0 0.0 18.7
2014-Nov-12 08:09N 35°43' W 177°57'0 0.0 18.7
2014-Nov-12 08:06N 35°43' W 177°57'   18.7
Track history (hours):
 
Tides and Currents Weather Stations Pressure Air Temp Water Temp Dewpoint Dewpoint Depression Visibility Wind Speed Wind Dir Waves Ship Positions

Drifting buoy 51940

Last reported at 2014-Nov-22 08:01 UTC. Time now 2014-Nov-22 08:54 UTC.
Position N 33°02' W 177°18'.

Date/timePositionNaut miles runAvg speedWind from/ knotsBaromVisibWave heightAir tempDewpointWater temp
2014-Nov-22 08:01N 33°02' W 177°18'0 0.0
2014-Nov-22 07:08N 33°02' W 177°18'5 1.9 19.8
2014-Nov-22 04:25N 33°02' W 177°24'1 4.3 19.7
2014-Nov-22 04:18N 33°02' W 177°23'2 1.2 19.7
2014-Nov-22 02:42N 33°02' W 177°26'360.8 19.5
2014-Nov-22 02:39N 33°03' W 177°29'3 9.6 19.5
2014-Nov-22 02:20N 33°02' W 177°26'8 5.0 19.5
2014-Nov-22 00:45N 33°04' W 177°35'1 0.2 19.5
2014-Nov-21 21:32N 33°04' W 177°34'10 2.9 19.4
2014-Nov-21 18:09N 33°08' W 177°45'0 0.2 19.4
2014-Nov-21 17:04N 33°08' W 177°45'0 0.0 19.3
2014-Nov-21 16:29N 33°08' W 177°45'2 1.9 19.4
2014-Nov-21 15:15N 33°10' W 177°47'0 0.0 19.3
2014-Nov-21 15:06N 33°10' W 177°47'0 0.0 19.3
2014-Nov-21 13:25N 33°10' W 177°47'7 1.6 19.3
2014-Nov-21 09:10N 33°14' W 177°54'0 0.0 19.3
2014-Nov-21 09:06N 33°14' W 177°54'1 1.5 19.3
2014-Nov-21 08:19N 33°14' W 177°55'5 5.6 19.3
2014-Nov-21 07:29N 33°19' W 177°58'0 0.0 19.3
2014-Nov-21 04:49N 33°19' W 177°58'5 2.7 19.2
2014-Nov-21 02:49N 33°24' W 177°59'0 0.0
2014-Nov-21 02:39N 33°24' W 177°59'7 4.2
2014-Nov-21 00:57N 33°31' W 177°59'0 0.0 19.2
2014-Nov-20 21:52N 33°31' W 177°59'0 0.0 19.4
2014-Nov-20 21:49N 33°31' W 177°59'8 9.9
2014-Nov-20 21:01N 33°39' W 178°01'0 0.0 19.5
2014-Nov-20 18:39N 33°39' W 178°01'6 5.3 19.5
2014-Nov-20 17:28N 33°45' W 178°02'0 0.5 19.4
2014-Nov-20 17:04N 33°45' W 178°02'358.4 19.4
2014-Nov-20 17:01N 33°42' W 178°02'3 2.4 19.4
2014-Nov-20 15:49N 33°45' W 178°02'0 0.2 19.4
2014-Nov-20 15:30N 33°45' W 178°02'314.0 19.4
2014-Nov-20 15:16N 33°48' W 178°03'0 0.2 19.4
2014-Nov-20 13:37N 33°48' W 178°03'6 1.4 19.4
2014-Nov-20 09:28N 33°53' W 178°01'1 1.5 19.4
2014-Nov-20 08:40N 33°55' W 178°01'2 2.2 19.3
2014-Nov-20 07:50N 33°56' W 178°01'4 2.2 19.3
2014-Nov-20 05:50N 34°01' W 177°59'3 2.4 19.3
2014-Nov-20 04:46N 34°03' W 177°58'4 2.9 19.3
2014-Nov-20 03:32N 34°07' W 177°58'0 0.0 19.3
2014-Nov-20 03:05N 34°07' W 177°58'112.0 19.3
2014-Nov-20 03:02N 34°07' W 177°58'421.1 19.3
2014-Nov-20 02:50N 34°11' W 177°57'0 0.0 19.3
2014-Nov-20 02:47N 34°11' W 177°57'1 0.4 19.3
2014-Nov-20 01:09N 34°11' W 177°57'6180.6
2014-Nov-20 01:07N 34°17' W 177°58'1 0.6 19.4
2014-Nov-19 23:02N 34°18' W 177°58'2 1.9
2014-Nov-19 22:13N 34°17' W 177°57'2 2.0 19.6
2014-Nov-19 21:25N 34°18' W 177°58'3 3.4 19.8
2014-Nov-19 20:29N 34°21' W 177°59'0 0.0 19.9
2014-Nov-19 19:04N 34°21' W 177°59'1 1.1
2014-Nov-19 17:53N 34°22' W 177°59'1 3.7 19.9
2014-Nov-19 17:32N 34°21' W 177°59'1 4.1 19.9
2014-Nov-19 17:13N 34°22' W 177°59'0 0.0 19.9
2014-Nov-19 16:19N 34°22' W 177°59'1 0.9 19.9
2014-Nov-19 15:40N 34°23' W 177°59'2 0.8 19.9
2014-Nov-19 13:46N 34°24' W 177°58'437.3 19.8
2014-Nov-19 13:40N 34°28' W 177°56'0 0.0 19.8
2014-Nov-19 09:49N 34°28' W 177°56'1 1.7 19.5
2014-Nov-19 09:03N 34°29' W 177°56'0 0.0 19.5
2014-Nov-19 08:57N 34°29' W 177°56'0 0.0
2014-Nov-19 08:12N 34°29' W 177°56'218.0 20.0
2014-Nov-19 08:04N 34°31' W 177°56'2 0.5 20.0
2014-Nov-19 03:58N 34°33' W 177°56'1 1.2 20.0
2014-Nov-19 03:18N 34°34' W 177°56'112.0 20.0
2014-Nov-19 03:12N 34°35' W 177°56'0 0.0 20.0
2014-Nov-19 01:23N 34°35' W 177°56'0 0.0 20.0
2014-Nov-19 01:18N 34°35' W 177°56'5 1.5 20.0
2014-Nov-18 21:43N 34°39' W 177°52'1 0.7 20.0
2014-Nov-18 20:49N 34°40' W 177°52'0 0.1
2014-Nov-18 18:01N 34°39' W 177°51'2 3.5 20.1
2014-Nov-18 17:26N 34°41' W 177°50'1 0.9 20.1
2014-Nov-18 16:45N 34°41' W 177°51'1 2.2 20.1
2014-Nov-18 16:25N 34°41' W 177°50'0 0.5 20.1
2014-Nov-18 15:51N 34°42' W 177°50'0 1.4 20.1
2014-Nov-18 15:38N 34°42' W 177°50'2 1.1 20.2
2014-Nov-18 13:58N 34°44' W 177°50'5 1.2 20.0
2014-Nov-18 10:13N 34°48' W 177°48'1 1.6 20.1
2014-Nov-18 09:23N 34°49' W 177°47'111.6 20.0
2014-Nov-18 09:19N 34°50' W 177°47'0 0.0 20.0
2014-Nov-18 08:32N 34°50' W 177°47'0 0.0 19.9
2014-Nov-18 08:28N 34°50' W 177°47'3 1.0 19.9
2014-Nov-18 05:09N 34°53' W 177°46'1 1.7 20.0
2014-Nov-18 04:26N 34°54' W 177°46'1 1.2 20.0
2014-Nov-18 03:25N 34°55' W 177°46'3 1.5 19.8
2014-Nov-18 01:33N 34°58' W 177°47'0 0.0 20.0
2014-Nov-18 01:27N 34°58' W 177°47'1 0.3 20.0
2014-Nov-17 21:13N 34°58' W 177°49'1 0.4 20.0
2014-Nov-17 18:26N 34°59' W 177°49'0 0.7
2014-Nov-17 17:45N 34°59' W 177°49'0 0.7 20.1
2014-Nov-17 17:01N 34°59' W 177°49'0 0.0 20.0
2014-Nov-17 16:55N 34°59' W 177°49'0 0.0 20.0
2014-Nov-17 16:02N 34°59' W 177°49'0 0.0 20.0
2014-Nov-17 15:59N 34°59' W 177°49'0 0.0 20.0
2014-Nov-17 15:47N 34°59' W 177°49'0 0.0 20.0
2014-Nov-17 14:09N 34°59' W 177°49'330.4 19.8
2014-Nov-17 14:03N 35°02' W 177°48'0 0.0 19.6
2014-Nov-17 10:32N 35°02' W 177°48'0 0.0 19.8
2014-Nov-17 09:40N 35°02' W 177°48'0 0.0 19.8
2014-Nov-17 08:49N 35°02' W 177°48'256.0 19.8
2014-Nov-17 08:47N 35°04' W 177°49'0 0.0 19.9
2014-Nov-17 08:05N 35°04' W 177°49'0 0.0 19.9
2014-Nov-17 07:09N 35°04' W 177°49'0 0.0 19.9
2014-Nov-17 05:43N 35°04' W 177°49'0 0.5 19.9
2014-Nov-17 04:46N 35°04' W 177°49'0 0.0 19.9
2014-Nov-17 03:39N 35°04' W 177°49'112.0 20.0
2014-Nov-17 03:36N 35°05' W 177°49'1 1.8 20.0
2014-Nov-17 03:10N 35°04' W 177°49'1 6.0 20.0
2014-Nov-17 03:04N 35°05' W 177°49'0 0.0 20.0
2014-Nov-17 01:45N 35°05' W 177°49'1 6.0 20.0
2014-Nov-17 01:39N 35°05' W 177°49'0 0.0 20.0
2014-Nov-17 00:04N 35°05' W 177°49'114.7 20.0
2014-Nov-17 00:00N 35°05' W 177°47'0 0.0 20.0
2014-Nov-16 22:24N 35°05' W 177°47'0 0.2 19.7
2014-Nov-16 21:34N 35°05' W 177°48'1 0.5 19.6
2014-Nov-16 19:04N 35°07' W 177°47'1 0.5 19.0
2014-Nov-16 17:54N 35°07' W 177°47'0 0.0
2014-Nov-16 17:28N 35°07' W 177°47'1 0.8 19.0
2014-Nov-16 16:16N 35°07' W 177°48'549.8 18.9
2014-Nov-16 16:10N 35°11' W 177°52'0 0.0 18.9
2014-Nov-16 15:48N 35°11' W 177°52'0 0.0 18.9
2014-Nov-16 14:19N 35°11' W 177°52'0 0.0 18.9
2014-Nov-16 14:13N 35°11' W 177°52'0 0.0 18.9
2014-Nov-16 12:32N 35°11' W 177°52'0 0.0 18.9
2014-Nov-16 09:13N 35°11' W 177°52'0 5.9 18.8
2014-Nov-16 09:08N 35°11' W 177°52'1 1.1 18.8
2014-Nov-16 08:26N 35°11' W 177°52'0 0.0 18.8
2014-Nov-16 08:23N 35°11' W 177°52'1 1.3 18.8
2014-Nov-16 07:31N 35°11' W 177°53'0 0.0 18.9
2014-Nov-16 06:13N 35°11' W 177°53'0 0.7 19.0
2014-Nov-16 05:28N 35°11' W 177°54'1 4.5 19.0
2014-Nov-16 05:15N 35°11' W 177°53'0 0.3 19.0
2014-Nov-16 03:46N 35°11' W 177°53'1 5.9 19.0
2014-Nov-16 03:31N 35°11' W 177°55'0 0.0 19.0
2014-Nov-16 01:55N 35°11' W 177°55'0 0.0 19.1
2014-Nov-16 01:49N 35°11' W 177°55'2 1.5 19.0
2014-Nov-16 00:14N 35°10' W 177°53'1 0.4 19.0
2014-Nov-15 21:02N 35°10' W 177°52'1 0.4 19.0
2014-Nov-15 18:07N 35°11' W 177°51'1 5.2 18.9
2014-Nov-15 17:58N 35°11' W 177°52'1 0.5 19.0
2014-Nov-15 16:28N 35°11' W 177°51'325.9 19.0
2014-Nov-15 16:22N 35°14' W 177°50'0 0.0 19.0
2014-Nov-15 16:18N 35°14' W 177°50'0 0.0 19.1
2014-Nov-15 14:32N 35°14' W 177°50'2 1.4 19.1
2014-Nov-15 12:49N 35°16' W 177°50'224.5 19.1
2014-Nov-15 12:43N 35°19' W 177°49'0 0.0 19.1
2014-Nov-15 09:34N 35°19' W 177°49'1 0.7 18.9
2014-Nov-15 08:45N 35°19' W 177°49'1 1.4 18.9
2014-Nov-15 07:55N 35°20' W 177°49'1 0.6 18.9
2014-Nov-15 06:45N 35°21' W 177°49'2 1.1 18.9
2014-Nov-15 05:04N 35°23' W 177°50'1 1.2 18.8
2014-Nov-15 03:58N 35°24' W 177°51'2 1.1 18.7
2014-Nov-15 02:17N 35°25' W 177°53'212.6 18.8
2014-Nov-15 02:08N 35°24' W 177°51'214.2 18.8
2014-Nov-15 02:00N 35°25' W 177°53'0 0.0 18.8
2014-Nov-15 00:26N 35°25' W 177°53'112.0 18.9
2014-Nov-15 00:23N 35°26' W 177°53'2 0.7 18.9
2014-Nov-14 22:15N 35°27' W 177°54'1 1.3 19.0
2014-Nov-14 21:26N 35°28' W 177°55'2 2.1 19.1
2014-Nov-14 20:32N 35°29' W 177°56'0 0.0 19.2
2014-Nov-14 18:29N 35°29' W 177°56'2 0.9 19.7
2014-Nov-14 16:49N 35°31' W 177°57'1 4.6 19.7
2014-Nov-14 16:39N 35°31' W 177°58'4 1.7 19.7
2014-Nov-14 14:34N 35°34' W 178°00'0 0.0 19.8
2014-Nov-14 09:53N 35°34' W 178°00'0 0.0 19.8
2014-Nov-14 09:04N 35°34' W 178°00'118.0 19.9
2014-Nov-14 09:02N 35°35' W 178°00'0 0.0 19.9
2014-Nov-14 08:15N 35°35' W 178°00'0 0.0 19.8
2014-Nov-14 08:10N 35°35' W 178°00'2 0.8 19.8
2014-Nov-14 05:35N 35°37' W 178°01'2 1.3 19.9
2014-Nov-14 04:25N 35°38' W 178°02'215.5 19.9
2014-Nov-14 04:19N 35°39' W 178°04'218.9 19.9
2014-Nov-14 04:13N 35°38' W 178°02'218.9 19.9
2014-Nov-14 04:07N 35°39' W 178°04'0 0.0 19.9
2014-Nov-14 02:32N 35°39' W 178°04'240.9 19.9
2014-Nov-14 02:29N 35°41' W 178°05'2 8.8 19.9
2014-Nov-14 02:15N 35°39' W 178°04'2 1.2 19.9
2014-Nov-14 00:33N 35°41' W 178°05'4 1.3 19.7
2014-Nov-13 21:48N 35°44' W 178°06'0 0.0 19.2
2014-Nov-13 20:56N 35°44' W 178°06'2 0.7 18.9
2014-Nov-13 17:19N 35°47' W 178°07'0 0.0 18.6
2014-Nov-13 17:07N 35°47' W 178°07'1 2.4 18.6
2014-Nov-13 16:48N 35°47' W 178°07'1 7.2 18.6
2014-Nov-13 16:43N 35°48' W 178°07'0 0.0 18.6
2014-Nov-13 15:07N 35°48' W 178°07'0 1.7 18.6
2014-Nov-13 14:49N 35°48' W 178°07'128.8 18.6
2014-Nov-13 14:47N 35°49' W 178°07'0 0.0 18.6
2014-Nov-13 13:13N 35°49' W 178°07'1 5.1 18.5
2014-Nov-13 13:04N 35°50' W 178°06'0 0.0 18.5
2014-Nov-13 10:15N 35°50' W 178°06'0 0.0 18.6
2014-Nov-13 09:28N 35°50' W 178°06'0 4.9 18.6
2014-Nov-13 09:22N 35°50' W 178°05'0 0.0 18.6
2014-Nov-13 08:34N 35°50' W 178°05'122.9 18.5
2014-Nov-13 08:31N 35°49' W 178°04'0 0.1 18.5
2014-Nov-13 06:09N 35°49' W 178°04'1 1.0 18.5
2014-Nov-13 04:48N 35°49' W 178°02'1 2.4 18.5
2014-Nov-13 04:19N 35°49' W 178°01'0 0.0 18.5
2014-Nov-13 04:17N 35°49' W 178°01'0 0.0 18.5
2014-Nov-13 02:45N 35°49' W 178°01'223.7 18.6
2014-Nov-13 02:41N 35°48' W 177°59'1 5.3 18.6
2014-Nov-13 02:28N 35°49' W 178°01'1 0.7 18.6
2014-Nov-13 00:48N 35°48' W 177°59'0 0.0 18.6
2014-Nov-13 00:45N 35°48' W 177°59'2 0.6 18.6
2014-Nov-12 22:07N 35°47' W 177°58'1 1.2 18.5
2014-Nov-12 21:18N 35°47' W 177°56'0 0.0 18.6
2014-Nov-12 17:49N 35°47' W 177°56'1 0.5 18.7
2014-Nov-12 16:13N 35°47' W 177°57'0 0.0 18.7
2014-Nov-12 15:19N 35°47' W 177°57'0 0.0 18.7
2014-Nov-12 15:04N 35°47' W 177°57'1 0.8 18.7
2014-Nov-12 13:25N 35°46' W 177°58'2 0.7 18.7
2014-Nov-12 10:34N 35°44' W 177°57'0 0.0 18.7
2014-Nov-12 09:43N 35°44' W 177°57'0 0.0 18.7
2014-Nov-12 08:58N 35°44' W 177°57'1 4.0 18.7
2014-Nov-12 08:49N 35°43' W 177°57'0 0.0 18.7
2014-Nov-12 08:09N 35°43' W 177°57'0 0.0 18.7
2014-Nov-12 08:06N 35°43' W 177°57'   18.7

Dump ship's entire track history